Capt. C.j. — WDG9929 — position and weather

sailwx.info

Track history (hours):
 
Tides and Currents Weather Stations Pressure Air Temp Water Temp Dewpoint Dewpoint Depression Visibility Wind Speed Wind Dir Waves Ship Positions

Capt. C.j.

Owner: Daigle Towing Service LLC., Belle Chasse, LA. More information available from US FCC via Universal Licensing System and Coast Guard Vessel Documentation Center.

Last reported at 2017-Sep-25 14:13 UTC. Time now 2017-Sep-26 02:14 UTC.
Position N 29°34' W 090°28'.

Length 21 m.

Type: Fishing. MMSI: 367592640.

Date/timePositionNaut miles runAvg speedWind from/ knotsBaromVisibWave heightAir tempDewpointWater temp
2017-Sep-25 14:13N 29°34' W 090°28'2 8.3
2017-Sep-25 14:00N 29°34' W 090°31'4 8.1
2017-Sep-25 13:30N 29°35' W 090°35'3 6.8
2017-Sep-25 13:00N 29°36' W 090°39'3 6.6
2017-Sep-25 12:30N 29°37' W 090°42'2 3.5
2017-Sep-25 11:59N 29°35' W 090°43'0 0.0
2017-Sep-25 11:30N 29°35' W 090°43'0 0.0
2017-Sep-25 11:01N 29°35' W 090°43'0 0.0
2017-Sep-25 10:30N 29°35' W 090°43'0 0.0
2017-Sep-25 10:00N 29°35' W 090°43'0 0.0
2017-Sep-25 09:30N 29°35' W 090°43'3 5.4
2017-Sep-25 09:01N 29°33' W 090°45'4 7.6
2017-Sep-25 08:30N 29°32' W 090°50'4 8.3
2017-Sep-25 07:59N 29°33' W 090°55'59 2.5
2017-Sep-24 08:52N 29°50' W 091°60'3 8.3
2017-Sep-24 08:30N 29°49' W 092°03'4 8.1
2017-Sep-24 08:00N 29°47' W 092°07'4 7.0
2017-Sep-24 07:30N 29°47' W 092°11'2 3.2
2017-Sep-24 07:00N 29°47' W 092°13'4 8.1
2017-Sep-24 06:30N 29°49' W 092°17'42 7.4
2017-Sep-24 00:51N 29°56' W 093°05'3 7.4
2017-Sep-24 00:30N 29°56' W 093°08'3 6.9
2017-Sep-24 00:00N 29°58' W 093°11'3 6.6
2017-Sep-23 23:30N 30°00' W 093°14'3 5.0
2017-Sep-23 23:00N 30°02' W 093°15'4 7.1
2017-Sep-23 22:30N 30°05' W 093°18'3 5.8
2017-Sep-23 22:00N 30°07' W 093°20'4 7.5
2017-Sep-23 21:30N 30°11' W 093°19'4 7.4
2017-Sep-23 21:00N 30°13' W 093°15'2 3.2
2017-Sep-23 20:30N 30°15' W 093°15'0 0.4
2017-Sep-23 19:58N 30°15' W 093°15'  
2017-Sep-16 18:47N 29°33' W 090°26'2 4.8
2017-Sep-16 18:28N 29°33' W 090°28'2 4.9
2017-Sep-16 18:00N 29°34' W 090°30'2 4.8
2017-Sep-16 17:31N 29°34' W 090°33'2 4.8
2017-Sep-16 17:00N 29°35' W 090°36'2 4.5
2017-Sep-16 16:31N 29°35' W 090°38'2 4.4
2017-Sep-16 16:00N 29°36' W 090°40'2 3.7
2017-Sep-16 15:30N 29°37' W 090°42'2 4.1
2017-Sep-16 15:00N 29°35' W 090°43'2 3.7
2017-Sep-16 14:31N 29°34' W 090°45'1 1.3
2017-Sep-16 14:00N 29°33' W 090°45'1 1.3
2017-Sep-16 13:30N 29°33' W 090°46'2 4.7
2017-Sep-16 13:00N 29°32' W 090°48'3 5.2
2017-Sep-16 12:30N 29°32' W 090°51'3 5.2
2017-Sep-16 11:58N 29°33' W 090°54'2 2.3
2017-Sep-16 11:14N 29°34' W 090°56'58 3.5
2017-Sep-15 18:36N 29°50' W 091°60'0 5.1
2017-Sep-15 18:30N 29°50' W 092°00'2 5.0
2017-Sep-15 18:00N 29°49' W 092°03'2 4.4
2017-Sep-15 17:30N 29°48' W 092°05'  
Track history (hours):
 
Tides and Currents Weather Stations Pressure Air Temp Water Temp Dewpoint Dewpoint Depression Visibility Wind Speed Wind Dir Waves Ship Positions

Capt. C.j.

Owner: Daigle Towing Service LLC., Belle Chasse, LA. More information available from US FCC via Universal Licensing System and Coast Guard Vessel Documentation Center.

Last reported at 2017-Sep-25 14:13 UTC. Time now 2017-Sep-26 02:14 UTC.
Position N 29°34' W 090°28'.

Length 21 m.

Type: Fishing. MMSI: 367592640.

Date/timePositionNaut miles runAvg speedWind from/ knotsBaromVisibWave heightAir tempDewpointWater temp
2017-Sep-25 14:13N 29°34' W 090°28'2 8.3
2017-Sep-25 14:00N 29°34' W 090°31'4 8.1
2017-Sep-25 13:30N 29°35' W 090°35'3 6.8
2017-Sep-25 13:00N 29°36' W 090°39'3 6.6
2017-Sep-25 12:30N 29°37' W 090°42'2 3.5
2017-Sep-25 11:59N 29°35' W 090°43'0 0.0
2017-Sep-25 11:30N 29°35' W 090°43'0 0.0
2017-Sep-25 11:01N 29°35' W 090°43'0 0.0
2017-Sep-25 10:30N 29°35' W 090°43'0 0.0
2017-Sep-25 10:00N 29°35' W 090°43'0 0.0
2017-Sep-25 09:30N 29°35' W 090°43'3 5.4
2017-Sep-25 09:01N 29°33' W 090°45'4 7.6
2017-Sep-25 08:30N 29°32' W 090°50'4 8.3
2017-Sep-25 07:59N 29°33' W 090°55'59 2.5
2017-Sep-24 08:52N 29°50' W 091°60'3 8.3
2017-Sep-24 08:30N 29°49' W 092°03'4 8.1
2017-Sep-24 08:00N 29°47' W 092°07'4 7.0
2017-Sep-24 07:30N 29°47' W 092°11'2 3.2
2017-Sep-24 07:00N 29°47' W 092°13'4 8.1
2017-Sep-24 06:30N 29°49' W 092°17'42 7.4
2017-Sep-24 00:51N 29°56' W 093°05'3 7.4
2017-Sep-24 00:30N 29°56' W 093°08'3 6.9
2017-Sep-24 00:00N 29°58' W 093°11'3 6.6
2017-Sep-23 23:30N 30°00' W 093°14'3 5.0
2017-Sep-23 23:00N 30°02' W 093°15'4 7.1
2017-Sep-23 22:30N 30°05' W 093°18'3 5.8
2017-Sep-23 22:00N 30°07' W 093°20'4 7.5
2017-Sep-23 21:30N 30°11' W 093°19'4 7.4
2017-Sep-23 21:00N 30°13' W 093°15'2 3.2
2017-Sep-23 20:30N 30°15' W 093°15'0 0.4
2017-Sep-23 19:58N 30°15' W 093°15'  
2017-Sep-16 18:47N 29°33' W 090°26'2 4.8
2017-Sep-16 18:28N 29°33' W 090°28'2 4.9
2017-Sep-16 18:00N 29°34' W 090°30'2 4.8
2017-Sep-16 17:31N 29°34' W 090°33'2 4.8
2017-Sep-16 17:00N 29°35' W 090°36'2 4.5
2017-Sep-16 16:31N 29°35' W 090°38'2 4.4
2017-Sep-16 16:00N 29°36' W 090°40'2 3.7
2017-Sep-16 15:30N 29°37' W 090°42'2 4.1
2017-Sep-16 15:00N 29°35' W 090°43'2 3.7
2017-Sep-16 14:31N 29°34' W 090°45'1 1.3
2017-Sep-16 14:00N 29°33' W 090°45'1 1.3
2017-Sep-16 13:30N 29°33' W 090°46'2 4.7
2017-Sep-16 13:00N 29°32' W 090°48'3 5.2
2017-Sep-16 12:30N 29°32' W 090°51'3 5.2
2017-Sep-16 11:58N 29°33' W 090°54'2 2.3
2017-Sep-16 11:14N 29°34' W 090°56'58 3.5
2017-Sep-15 18:36N 29°50' W 091°60'0 5.1
2017-Sep-15 18:30N 29°50' W 092°00'2 5.0
2017-Sep-15 18:00N 29°49' W 092°03'2 4.4
2017-Sep-15 17:30N 29°48' W 092°05'  

Dump ship's entire track history